Time;durP1;ratioP1;P1;durP2;ratioP2;P2;SDS_P1;SDS_P2;PMS_P1;PMS_P2;Temp;Humidity;BMP_temperature;BMP_pressure;BME280_temperature;BME280_humidity;BME280_pressure;Samples;Min_cycle;Max_cycle;Signal;HPM_P1;HPM_P2
2022/05/06 00:00:56;;;;;;;;;28.50;25.25;;;;;13.38;66.25;102554.09;5053397;28;10342;-66
2022/05/06 00:03:23;;;;;;;;;25.75;23.25;;;;;13.38;66.38;102556.81;5061930;28;10351;-66
2022/05/06 00:05:50;;;;;;;;;27.25;22.25;;;;;13.39;66.45;102552.22;5053314;28;10610;-66
2022/05/06 00:08:18;;;;;;;;;24.50;20.00;;;;;13.40;66.33;102559.31;5063879;28;10330;-66
2022/05/06 00:10:44;;;;;;;;;30.00;22.75;;;;;13.41;66.38;102558.31;5053079;28;10382;-66
2022/05/06 00:13:10;;;;;;;;;30.75;26.50;;;;;13.38;66.33;102550.56;5052295;28;10430;-67
2022/05/06 00:15:37;;;;;;;;;30.75;23.50;;;;;13.38;66.58;102554.09;5052636;28;10596;-67
2022/05/06 00:18:04;;;;;;;;;36.50;32.00;;;;;13.40;66.35;102548.50;5052130;28;10556;-65
2022/05/06 00:20:32;;;;;;;;;26.50;22.00;;;;;13.40;66.33;102553.91;5052624;28;10683;-66
2022/05/06 00:22:59;;;;;;;;;24.00;20.75;;;;;13.42;66.37;102551.91;5064404;28;10542;-66
2022/05/06 00:25:26;;;;;;;;;31.50;28.25;;;;;13.43;66.22;102543.59;5070998;28;10515;-66
2022/05/06 00:27:52;;;;;;;;;30.25;27.00;;;;;13.40;66.26;102549.34;5055808;28;10499;-67
2022/05/06 00:30:19;;;;;;;;;32.00;28.00;;;;;13.33;67.05;102543.78;5063784;28;10382;-65
2022/05/06 00:32:46;;;;;;;;;31.25;26.75;;;;;13.34;67.02;102542.78;5067243;28;10613;-66
2022/05/06 00:35:12;;;;;;;;;30.50;24.25;;;;;13.39;66.45;102546.81;5068935;28;10642;-66
2022/05/06 00:37:39;;;;;;;;;37.50;32.00;;;;;13.38;66.35;102545.97;5066821;28;10556;-65
2022/05/06 00:40:06;;;;;;;;;31.50;28.25;;;;;13.32;67.00;102539.38;5068550;28;10564;-66
2022/05/06 00:42:32;;;;;;;;;23.50;20.00;;;;;13.29;66.73;102537.03;5068027;28;10572;-66
2022/05/06 00:44:59;;;;;;;;;25.00;23.50;;;;;13.25;67.21;102540.25;5058614;28;10301;-66
2022/05/06 00:47:25;;;;;;;;;33.25;31.75;;;;;13.23;67.25;102529.59;5066901;28;10387;-66
2022/05/06 00:49:52;;;;;;;;;33.50;30.00;;;;;13.27;66.81;102536.34;5061726;28;10660;-66
2022/05/06 00:52:19;;;;;;;;;31.25;27.50;;;;;13.28;66.95;102535.31;5070488;28;10385;-66
2022/05/06 00:54:47;;;;;;;;;32.00;27.25;;;;;13.28;66.56;102542.59;5060078;28;10566;-65
2022/05/06 00:57:13;;;;;;;;;36.00;34.25;;;;;13.23;66.69;102535.00;5068302;28;10397;-66
2022/05/06 01:02:26;;;;;;;;;26.50;22.50;;;;;13.21;66.96;102534.31;5068306;28;10628;-66
2022/05/06 01:04:55;;;;;;;;;34.75;28.25;;;;;13.22;67.36;102537.84;5062633;28;10423;-65
2022/05/06 01:07:22;;;;;;;;;33.25;28.75;;;;;13.21;67.03;102534.31;5068538;28;10638;-66
2022/05/06 01:09:49;;;;;;;;;26.00;25.75;;;;;13.22;67.17;102525.16;5069214;28;10565;-66
2022/05/06 01:12:16;;;;;;;;;26.50;26.00;;;;;13.22;67.55;102527.88;5056675;28;10484;-65
2022/05/06 01:14:42;;;;;;;;;32.75;26.00;;;;;13.20;67.20;102532.59;5064591;28;10334;-66
2022/05/06 01:17:19;;;;;;;;;40.75;29.75;;;;;13.19;67.25;102532.78;5068653;28;10313;-66
2022/05/06 01:19:45;;;;;;;;;22.50;22.00;;;;;13.18;67.19;102537.34;5063485;28;10499;-66
2022/05/06 01:22:12;;;;;;;;;30.75;26.75;;;;;13.18;67.58;102537.34;5062375;28;10304;-64
2022/05/06 01:24:38;;;;;;;;;31.75;27.00;;;;;13.18;67.49;102542.75;5061933;28;10499;-66
2022/05/06 01:27:26;;;;;;;;;23.50;22.25;;;;;13.18;67.30;102536.50;5063906;28;10476;-65
2022/05/06 01:29:54;;;;;;;;;32.25;28.75;;;;;13.17;67.44;102541.06;5065700;28;11054;-65
2022/05/06 01:32:22;;;;;;;;;35.75;31.50;;;;;13.15;67.69;102544.94;5065520;28;10588;-65
2022/05/06 01:34:51;;;;;;;;;30.00;26.75;;;;;13.11;67.58;102536.31;5069476;28;10593;-66
2022/05/06 01:37:21;;;;;;;;;27.25;26.25;;;;;13.07;67.62;102533.13;5049801;28;10528;-65
2022/05/06 01:39:53;;;;;;;;;23.75;22.75;;;;;13.08;67.98;102547.47;5065228;28;10549;-65
2022/05/06 01:42:23;;;;;;;;;30.75;24.25;;;;;13.03;67.61;102541.72;5064010;28;10343;-66
2022/05/06 01:44:57;;;;;;;;;28.75;27.00;;;;;12.99;67.67;102540.38;5069890;28;10286;-65
2022/05/06 01:47:26;;;;;;;;;25.50;23.50;;;;;12.95;68.08;102544.44;5068707;28;10484;-65
2022/05/06 01:49:58;;;;;;;;;29.25;27.00;;;;;12.92;68.02;102537.50;5059538;28;10321;-65
2022/05/06 01:52:29;;;;;;;;;29.50;24.75;;;;;12.89;68.08;102534.31;5066723;28;10542;-65
2022/05/06 01:54:55;;;;;;;;;28.25;23.75;;;;;12.89;68.21;102537.03;5061491;28;10691;-65
2022/05/06 01:57:22;;;;;;;;;31.00;25.25;;;;;12.86;67.92;102540.88;5068601;28;10427;-68
2022/05/06 01:59:48;;;;;;;;;26.00;24.75;;;;;12.85;68.39;102540.06;5067727;28;11331;-66
2022/05/06 02:02:21;;;;;;;;;19.75;19.25;;;;;12.86;68.08;102547.13;5067088;28;10444;-66
2022/05/06 02:07:39;;;;;;;;;22.25;20.00;;;;;12.81;68.37;102541.41;5068294;28;10462;-66
2022/05/06 02:10:06;;;;;;;;;23.75;20.00;;;;;12.79;68.46;102547.97;5056800;28;10310;-65
2022/05/06 02:12:37;;;;;;;;;27.75;20.00;;;;;12.77;68.33;102552.72;5064198;28;10662;-65
2022/05/06 02:15:36;;;;;;;;;28.75;24.50;;;;;12.74;68.31;102542.22;5046592;28;10225;-64
2022/05/06 02:18:23;;;;;;;;;23.00;20.50;;;;;12.73;68.46;102546.78;5064486;28;10403;-65
2022/05/06 02:21:28;;;;;;;;;22.75;19.75;;;;;12.72;68.47;102547.81;5062327;28;10304;-65
2022/05/06 02:24:20;;;;;;;;;20.75;20.75;;;;;12.67;68.50;102539.34;5045574;28;10511;-66
2022/05/06 02:27:03;;;;;;;;;22.00;18.50;;;;;12.65;68.75;102541.38;5062834;28;10389;-65
2022/05/06 02:29:30;;;;;;;;;20.25;18.00;;;;;12.60;68.89;102539.19;5050124;28;10314;-65
2022/05/06 02:34:47;;;;;;;;;30.00;24.50;;;;;12.53;68.86;102543.53;5067871;28;10247;-66
2022/05/06 02:37:15;;;;;;;;;29.50;22.00;;;;;12.50;69.08;102543.03;5066069;28;10314;-67
2022/05/06 02:39:47;;;;;;;;;31.00;21.75;;;;;12.49;69.10;102544.88;5064015;28;10570;-66
2022/05/06 02:42:20;;;;;;;;;23.00;19.50;;;;;12.52;69.05;102544.56;5059637;28;10653;-66
2022/05/06 02:44:49;;;;;;;;;23.75;17.25;;;;;12.56;69.60;102545.09;5065120;28;10346;-66
2022/05/06 02:47:16;;;;;;;;;23.75;22.25;;;;;12.57;69.47;102547.59;5071632;28;10202;-66
2022/05/06 02:49:44;;;;;;;;;26.50;22.75;;;;;12.56;69.13;102547.78;5067115;28;11073;-66
2022/05/06 02:52:13;;;;;;;;;26.25;22.75;;;;;12.55;69.41;102559.56;5067950;28;10330;-66
2022/05/06 02:54:40;;;;;;;;;24.75;21.50;;;;;12.55;69.00;102554.16;5071469;28;10352;-67
2022/05/06 02:57:09;;;;;;;;;26.00;20.25;;;;;12.55;69.47;102557.72;5069270;28;10374;-67
2022/05/06 02:59:39;;;;;;;;;20.00;17.75;;;;;12.51;68.82;102545.56;5069148;28;10401;-67
2022/05/06 03:02:06;;;;;;;;;22.50;18.25;;;;;12.48;69.11;102537.81;5068307;28;10061;-67
2022/05/06 03:04:33;;;;;;;;;20.75;17.75;;;;;12.49;69.07;102546.75;5062520;28;10423;-65
2022/05/06 03:07:04;;;;;;;;;21.00;18.25;;;;;12.46;68.66;102544.38;5062999;28;10437;-67
2022/05/06 03:09:39;;;;;;;;;18.50;14.00;;;;;12.43;68.69;102544.69;5068034;28;10314;-66
2022/05/06 03:12:07;;;;;;;;;23.25;18.75;;;;;12.41;69.02;102547.56;5070449;28;10350;-65
2022/05/06 03:14:37;;;;;;;;;23.25;19.75;;;;;12.41;68.82;102544.03;5067829;28;10399;-67
2022/05/06 03:17:24;;;;;;;;;27.00;19.25;;;;;12.37;69.28;102541.63;5060481;28;10466;-67
2022/05/06 03:19:51;;;;;;;;;21.50;18.75;;;;;12.41;69.32;102536.75;5068063;28;10172;-66
2022/05/06 03:22:18;;;;;;;;;24.50;14.75;;;;;12.42;68.94;102532.19;5053661;28;10224;-67
2022/05/06 03:24:46;;;;;;;;;30.50;21.75;;;;;12.42;68.65;102533.03;5059582;28;10526;-66
2022/05/06 03:29:57;;;;;;;;;24.00;22.50;;;;;12.41;69.07;102525.13;5071897;28;10458;-65
2022/05/06 03:32:26;;;;;;;;;18.50;15.50;;;;;12.40;69.02;102536.91;5065844;28;10554;-65
2022/05/06 03:34:53;;;;;;;;;19.75;16.00;;;;;12.40;69.58;102532.38;5073171;28;10390;-65
2022/05/06 03:37:22;;;;;;;;;19.25;16.25;;;;;12.38;69.65;102532.53;5069201;28;10286;-66
2022/05/06 03:39:49;;;;;;;;;29.25;18.50;;;;;12.38;69.55;102535.22;5063293;28;10330;-65
2022/05/06 03:42:16;;;;;;;;;19.50;17.00;;;;;12.38;69.59;102540.63;5056578;28;10384;-65
2022/05/06 03:44:43;;;;;;;;;20.00;17.50;;;;;12.37;69.34;102536.25;5068642;28;10425;-66
2022/05/06 03:47:09;;;;;;;;;21.00;15.75;;;;;12.35;69.12;102530.16;5065914;28;10311;-66
2022/05/06 03:49:36;;;;;;;;;18.75;16.50;;;;;12.33;69.18;102532.19;5066016;28;10299;-66
2022/05/06 03:52:03;;;;;;;;;19.50;18.25;;;;;12.31;69.60;102539.59;5067835;28;10218;-65
2022/05/06 03:54:31;;;;;;;;;17.25;16.75;;;;;12.28;69.50;102533.69;5086501;28;10223;-66
2022/05/06 03:56:58;;;;;;;;;17.50;16.25;;;;;12.25;69.32;102531.31;5068910;28;10238;-66
2022/05/06 03:59:24;;;;;;;;;14.50;13.00;;;;;12.23;69.55;102531.47;5070233;28;10297;-65
2022/05/06 04:02:04;;;;;;;;;15.75;11.75;;;;;12.22;69.94;102537.88;5062561;28;10265;-65
2022/05/06 04:04:32;;;;;;;;;14.75;14.75;;;;;12.21;69.66;102535.34;5053712;28;10334;-65
2022/05/06 04:07:02;;;;;;;;;12.00;11.75;;;;;12.17;69.47;102529.44;5058481;28;10263;-66
2022/05/06 04:09:33;;;;;;;;;13.50;12.75;;;;;12.13;69.10;102534.31;5069635;28;10308;-65
2022/05/06 04:12:00;;;;;;;;;19.00;16.00;;;;;12.09;69.39;102535.63;5070931;28;10281;-66
2022/05/06 04:14:27;;;;;;;;;14.50;14.00;;;;;12.04;68.91;102542.53;5068017;28;10380;-65
2022/05/06 04:16:54;;;;;;;;;10.75;10.00;;;;;11.99;69.13;102540.34;5066163;28;10418;-66
2022/05/06 04:19:29;;;;;;;;;11.75;10.75;;;;;11.97;69.56;102542.34;5067909;28;10260;-64
2022/05/06 04:24:58;;;;;;;;;13.50;12.75;;;;;11.92;69.46;102541.13;5067586;28;10437;-66
2022/05/06 04:27:27;;;;;;;;;17.00;15.00;;;;;11.90;69.12;102549.38;5050698;28;10434;-66
2022/05/06 04:29:57;;;;;;;;;11.25;10.25;;;;;11.87;68.73;102545.16;5059755;28;10550;-66
2022/05/06 04:32:32;;;;;;;;;14.25;11.75;;;;;11.87;69.22;102547.03;5066730;28;11198;-66
2022/05/06 04:35:00;;;;;;;;;15.00;13.50;;;;;11.90;69.39;102552.06;5070857;28;10377;-66
2022/05/06 04:37:27;;;;;;;;;13.00;10.00;;;;;11.91;69.07;102550.22;5063079;28;10290;-66
2022/05/06 04:39:57;;;;;;;;;16.25;16.25;;;;;11.91;69.39;102552.91;5067507;28;10390;-66
2022/05/06 04:42:25;;;;;;;;;15.75;12.50;;;;;11.90;69.21;102548.53;5064327;28;11276;-66
2022/05/06 04:44:52;;;;;;;;;19.75;14.75;;;;;11.90;69.34;102553.94;5066968;28;10368;-65
2022/05/06 04:47:19;;;;;;;;;18.00;15.75;;;;;11.91;69.41;102559.19;5068371;28;10379;-64
2022/05/06 04:49:46;;;;;;;;;24.00;17.25;;;;;11.91;69.94;102555.63;5064060;28;10311;-66
2022/05/06 04:52:13;;;;;;;;;25.25;17.50;;;;;11.89;69.58;102571.97;5063445;28;10484;-65
2022/05/06 04:54:39;;;;;;;;;17.50;14.00;;;;;11.86;69.51;102567.75;5067817;28;10577;-66
2022/05/06 04:57:06;;;;;;;;;15.75;11.75;;;;;11.85;69.71;102570.63;5069999;28;10348;-66
2022/05/06 04:59:35;;;;;;;;;17.25;14.75;;;;;11.86;69.13;102573.13;5068331;28;10415;-65
2022/05/06 05:02:03;;;;;;;;;13.00;10.50;;;;;11.85;69.43;102568.75;5063881;28;10547;-65
2022/05/06 05:04:30;;;;;;;;;13.00;13.00;;;;;11.87;69.18;102564.06;5066424;28;10320;-66
2022/05/06 05:07:06;;;;;;;;;14.25;13.75;;;;;11.86;69.49;102575.84;5062141;28;10609;-65
2022/05/06 05:09:37;;;;;;;;;15.75;13.75;;;;;11.88;69.50;102576.53;5064206;28;10522;-64
2022/05/06 05:12:05;;;;;;;;;11.00;10.00;;;;;11.87;69.36;102580.25;5067841;28;10585;-63
2022/05/06 05:14:41;;;;;;;;;9.50;9.25;;;;;12.12;70.36;102580.38;5070014;28;10475;-66
2022/05/06 05:17:11;;;;;;;;;14.00;12.75;;;;;12.13;68.89;102580.19;5059590;28;10305;-66
2022/05/06 05:19:39;;;;;;;;;11.50;9.75;;;;;12.09;68.71;102580.69;5068112;28;10436;-65
2022/05/06 05:22:05;;;;;;;;;11.50;9.00;;;;;12.05;68.41;102579.31;5064051;28;10186;-65
2022/05/06 05:24:33;;;;;;;;;13.00;11.50;;;;;12.01;68.15;102575.25;5069478;28;10138;-66
2022/05/06 05:27:01;;;;;;;;;17.25;13.50;;;;;11.95;68.87;102581.28;5067483;28;10305;-66
2022/05/06 05:29:31;;;;;;;;;10.00;7.75;;;;;11.92;68.78;102581.63;5078048;28;10374;-66
2022/05/06 05:31:58;;;;;;;;;11.75;11.75;;;;;11.92;69.13;102581.63;5063197;28;10318;-68
2022/05/06 05:34:26;;;;;;;;;7.25;7.00;;;;;11.91;68.73;102582.59;5057822;28;10220;-66
2022/05/06 05:36:52;;;;;;;;;10.50;9.75;;;;;11.84;68.55;102585.97;5077412;28;10138;-65
2022/05/06 05:39:19;;;;;;;;;13.50;10.75;;;;;11.83;68.97;102589.66;5070083;28;10238;-65
2022/05/06 05:41:49;;;;;;;;;12.00;11.00;;;;;11.82;68.83;102593.31;5064194;28;10515;-66
2022/05/06 05:49:54;;;;;;;;;14.00;13.50;;;;;11.85;69.53;102592.19;5060213;28;10373;-67
2022/05/06 05:52:23;;;;;;;;;10.25;10.00;;;;;11.84;69.43;102591.34;5066355;28;10514;-66
2022/05/06 05:54:51;;;;;;;;;12.75;12.00;;;;;11.85;68.88;102584.09;5060466;28;10389;-67
2022/05/06 05:57:17;;;;;;;;;12.00;9.50;;;;;11.86;69.19;102589.31;5059667;28;10312;-65
2022/05/06 05:59:44;;;;;;;;;14.25;13.75;;;;;11.86;69.33;102594.72;5073052;28;10342;-65
2022/05/06 06:02:11;;;;;;;;;16.75;15.00;;;;;11.88;69.15;102591.88;5069297;28;10401;-65
2022/05/06 06:04:43;;;;;;;;;16.50;13.75;;;;;11.87;68.96;102593.75;5069045;28;11255;-65
2022/05/06 06:07:12;;;;;;;;;13.00;12.50;;;;;11.86;68.85;102588.47;5067801;28;10225;-65
2022/05/06 06:09:42;;;;;;;;;10.50;10.50;;;;;11.84;69.28;102591.34;5052466;28;10382;-65
2022/05/06 06:12:10;;;;;;;;;13.25;12.00;;;;;11.91;69.38;102588.00;5067710;28;10287;-65
2022/05/06 06:14:38;;;;;;;;;15.75;11.75;;;;;11.97;68.63;102587.38;5068443;28;10523;-65
2022/05/06 06:17:05;;;;;;;;;14.00;13.00;;;;;12.03;68.19;102584.00;5063819;28;11136;-65
2022/05/06 06:19:33;;;;;;;;;12.50;11.50;;;;;12.08;68.21;102595.19;5055924;28;10574;-66
2022/05/06 06:22:00;;;;;;;;;12.25;12.25;;;;;12.13;68.08;102592.84;5066138;28;10217;-66
2022/05/06 06:24:39;;;;;;;;;12.25;10.50;;;;;12.17;68.12;102582.59;5068699;28;10234;-66
2022/05/06 06:27:05;;;;;;;;;18.00;17.25;;;;;12.08;67.44;102582.53;5068511;28;10252;-66
2022/05/06 06:29:35;;;;;;;;;15.25;15.00;;;;;11.98;67.85;102586.34;5068439;28;10477;-65
2022/05/06 06:32:03;;;;;;;;;13.50;12.25;;;;;12.03;68.36;102584.88;5068462;28;10355;-65
2022/05/06 06:34:30;;;;;;;;;9.75;9.00;;;;;12.13;68.33;102582.91;5068740;28;10308;-65
2022/05/06 06:36:56;;;;;;;;;15.25;14.75;;;;;12.30;67.76;102591.91;5066460;28;10273;-64
2022/05/06 06:39:23;;;;;;;;;13.25;13.25;;;;;12.52;67.52;102593.19;5068358;28;10393;-65
2022/05/06 06:41:51;;;;;;;;;17.00;16.25;;;;;12.72;66.81;102588.34;5066664;28;10402;-65
2022/05/06 06:44:23;;;;;;;;;14.25;11.75;;;;;12.90;66.33;102593.59;5065348;28;11129;-65
2022/05/06 06:47:11;;;;;;;;;19.00;14.50;;;;;13.03;65.95;102593.09;5050258;28;10179;-65
2022/05/06 06:49:48;;;;;;;;;18.25;15.75;;;;;13.11;65.84;102593.94;5049451;28;10246;-66
2022/05/06 06:52:28;;;;;;;;;19.00;14.50;;;;;13.16;65.01;102596.16;5065827;28;10364;-64
2022/05/06 06:54:56;;;;;;;;;22.75;18.75;;;;;13.21;65.05;102596.50;5070536;28;10879;-63
2022/05/06 06:57:25;;;;;;;;;19.00;15.25;;;;;13.24;65.14;102608.84;5055055;28;10098;-65
2022/05/06 06:59:51;;;;;;;;;11.75;11.75;;;;;13.26;65.06;102604.13;5049870;28;10315;-65
2022/05/06 07:02:18;;;;;;;;;14.50;14.00;;;;;13.35;65.35;102609.38;5049860;28;10057;-65
2022/05/06 07:04:44;;;;;;;;;16.75;14.75;;;;;13.43;65.12;102613.09;5065308;28;10075;-65
2022/05/06 07:12:42;;;;;;;;;18.25;15.25;;;;;13.52;64.31;102612.91;5069595;28;10145;-66
2022/05/06 07:15:08;;;;;;;;;18.50;18.25;;;;;13.56;64.56;102618.81;5068464;28;10181;-65
2022/05/06 07:17:35;;;;;;;;;23.75;19.50;;;;;13.62;64.46;102622.72;5057349;28;10157;-66
2022/05/06 07:20:02;;;;;;;;;22.25;22.00;;;;;13.67;64.30;102621.19;5050098;28;10314;-66
2022/05/06 07:22:28;;;;;;;;;18.50;17.25;;;;;13.71;64.50;102610.88;5049743;28;10171;-65
2022/05/06 07:24:55;;;;;;;;;17.00;15.75;;;;;13.81;64.19;102617.81;5049539;28;10233;-66
2022/05/06 07:27:22;;;;;;;;;24.00;21.50;;;;;13.91;64.11;102606.75;5050224;28;10767;-65
2022/05/06 07:29:48;;;;;;;;;21.50;18.00;;;;;13.96;63.66;102615.22;5053491;28;10139;-65
2022/05/06 07:32:15;;;;;;;;;22.25;18.25;;;;;14.03;63.28;102609.94;5053421;28;10069;-65
2022/05/06 07:34:41;;;;;;;;;19.00;17.00;;;;;14.10;63.27;102611.78;5053333;28;10158;-65
2022/05/06 07:37:08;;;;;;;;;16.00;16.00;;;;;14.14;63.03;102615.00;5052872;28;9990;-65
2022/05/06 07:39:34;;;;;;;;;17.25;16.00;;;;;14.19;63.39;102615.31;5053962;28;10133;-65
2022/05/06 07:42:01;;;;;;;;;17.75;17.00;;;;;14.21;63.04;102607.84;5053074;28;9987;-65
2022/05/06 07:44:28;;;;;;;;;18.50;16.00;;;;;14.22;62.74;102604.13;5053269;28;9867;-65
2022/05/06 07:46:54;;;;;;;;;18.25;17.50;;;;;14.24;62.69;102604.78;5052621;28;9859;-66
2022/05/06 07:49:23;;;;;;;;;20.25;19.00;;;;;14.25;62.75;102611.06;5053171;28;9775;-66
2022/05/06 07:51:50;;;;;;;;;25.75;23.75;;;;;14.28;62.73;102603.41;5052741;28;9917;-66
2022/05/06 07:54:17;;;;;;;;;25.75;24.00;;;;;14.34;62.47;102602.72;5051880;28;10070;-66
2022/05/06 07:56:43;;;;;;;;;16.00;16.00;;;;;14.42;62.50;102603.69;5052540;28;10413;-65
2022/05/06 07:59:11;;;;;;;;;17.25;15.25;;;;;14.48;61.99;102597.59;5053032;28;9873;-65
2022/05/06 08:04:32;;;;;;;;;13.00;13.00;;;;;14.55;61.91;102609.44;5052625;28;9781;-65
2022/05/06 08:07:06;;;;;;;;;12.50;11.75;;;;;14.61;61.71;102597.88;5052344;28;9855;-66
2022/05/06 08:09:34;;;;;;;;;19.75;15.00;;;;;14.70;61.51;102595.94;5052757;28;9830;-65
2022/05/06 08:12:01;;;;;;;;;15.00;14.00;;;;;14.74;61.66;102587.28;5052491;28;9947;-66
2022/05/06 08:14:27;;;;;;;;;18.00;16.50;;;;;14.81;61.85;102588.25;5052556;28;9768;-66
2022/05/06 08:16:54;;;;;;;;;14.00;13.00;;;;;14.90;61.40;102591.75;5066381;28;9782;-66
2022/05/06 08:19:20;;;;;;;;;13.75;12.00;;;;;14.96;61.30;102584.78;5072591;28;9729;-65
2022/05/06 08:21:50;;;;;;;;;8.75;7.25;;;;;14.99;61.18;102587.97;5058293;28;9779;-64
2022/05/06 08:24:17;;;;;;;;;9.00;8.25;;;;;15.01;61.05;102587.78;5051232;28;9531;-64
2022/05/06 08:26:43;;;;;;;;;9.25;9.25;;;;;15.09;60.76;102585.84;5052474;28;9639;-65
2022/05/06 08:29:10;;;;;;;;;12.00;11.75;;;;;15.15;60.36;102578.00;5052404;28;9438;-66
2022/05/06 08:31:40;;;;;;;;;9.75;9.75;;;;;15.22;60.38;102578.97;5052118;28;9593;-65
2022/05/06 08:34:11;;;;;;;;;10.75;10.75;;;;;15.25;60.63;102578.63;5052052;28;9447;-65
2022/05/06 08:36:40;;;;;;;;;12.00;12.00;;;;;15.31;60.40;102578.75;5060938;28;9439;-65
2022/05/06 08:39:08;;;;;;;;;10.75;10.00;;;;;15.34;60.45;102588.38;5067069;28;9599;-65
2022/05/06 08:41:41;;;;;;;;;9.50;8.50;;;;;15.43;60.38;102589.97;5071838;28;9437;-65
2022/05/06 08:52:32;;;;;;;;;8.00;8.00;;;;;15.74;59.55;102589.03;5071446;28;9283;-65
2022/05/06 08:55:03;;;;;;;;;10.67;10.67;;;;;15.80;59.18;102582.88;5071475;28;9507;-65
2022/05/06 08:57:31;;;;;;;;;6.33;5.67;;;;;15.83;58.78;102588.75;5052246;28;9439;-64
2022/05/06 08:59:57;;;;;;;;;4.33;4.33;;;;;15.92;58.75;102575.09;5051505;28;9049;-65
2022/05/06 09:02:24;;;;;;;;;8.00;8.00;;;;;16.03;58.87;102582.75;5051922;28;9152;-66
2022/05/06 09:04:51;;;;;;;;;6.33;6.33;;;;;16.13;58.49;102580.63;5051377;28;9347;-65
2022/05/06 09:07:21;;;;;;;;;5.67;5.67;;;;;16.23;57.99;102583.03;5051465;28;9204;-65
2022/05/06 09:10:16;;;;;;;;;7.67;7.67;;;;;16.32;58.26;102581.88;5051564;28;9217;-66
2022/05/06 09:12:45;;;;;;;;;9.00;7.00;;;;;16.39;57.89;102579.28;5044206;28;9339;-65
2022/05/06 09:17:59;;;;;;;;;7.67;7.33;;;;;16.62;57.42;102581.84;5061331;28;9918;-66
2022/05/06 09:20:27;;;;;;;;;10.67;7.67;;;;;16.65;57.16;102573.28;5071020;28;9208;-65
2022/05/06 09:22:56;;;;;;;;;7.33;7.33;;;;;16.77;56.66;102578.09;5069576;28;9366;-65
2022/05/06 09:25:39;;;;;;;;;8.00;6.67;;;;;16.89;56.87;102570.22;5052056;28;9087;-66
2022/05/06 09:28:19;;;;;;;;;9.33;8.33;;;;;16.99;56.57;102578.91;5050622;28;9124;-65
2022/05/06 09:31:04;;;;;;;;;7.67;6.33;;;;;17.07;56.17;102580.66;5051033;28;9066;-65
2022/05/06 09:33:34;;;;;;;;;5.25;5.25;;;;;17.13;56.38;102577.16;5069357;28;8921;-65
2022/05/06 09:36:24;;;;;;;;;8.00;6.75;;;;;17.17;56.01;102583.88;5070612;28;8900;-65
2022/05/06 09:39:07;;;;;;;;;8.67;8.33;;;;;17.23;55.46;102585.00;5069633;28;8819;-65
2022/05/06 09:41:37;;;;;;;;;10.33;10.33;;;;;17.26;55.82;102587.34;5069768;28;8992;-65
2022/05/06 09:44:05;;;;;;;;;3.33;3.33;;;;;17.32;55.23;102578.38;5064956;28;9071;-65
2022/05/06 09:46:32;;;;;;;;;15.00;11.00;;;;;17.33;55.38;102581.94;5051450;28;9055;-66
2022/05/06 09:49:02;;;;;;;;;13.67;9.00;;;;;17.40;55.81;102582.84;5050773;28;9136;-68
2022/05/06 09:51:49;;;;;;;;;10.33;10.33;;;;;17.37;55.66;102577.78;5058070;28;8943;-66
2022/05/06 09:54:31;;;;;;;;;14.00;13.00;;;;;17.53;55.37;102570.16;5051495;28;9063;-65
2022/05/06 09:56:59;;;;;;;;;13.00;11.00;;;;;17.56;55.60;102568.94;5050212;28;9132;-65
2022/05/06 09:59:27;;;;;;;;;10.33;10.33;;;;;17.65;55.24;102567.72;5050540;28;9049;-66
2022/05/06 10:01:53;;;;;;;;;13.00;12.33;;;;;17.76;54.77;102564.50;5050765;28;8947;-66
2022/05/06 10:04:20;;;;;;;;;11.00;10.00;;;;;17.82;55.00;102557.38;5050604;28;9059;-66
2022/05/06 10:06:47;;;;;;;;;15.00;13.00;;;;;17.89;54.88;102552.00;5065771;23;9033;-65
2022/05/06 10:09:17;;;;;;;;;12.00;12.00;;;;;17.96;53.88;102547.44;5045335;28;9078;-67
2022/05/06 10:11:44;;;;;;;;;11.00;11.00;;;;;18.05;53.98;102554.38;5029794;28;9095;-67
2022/05/06 10:14:14;;;;;;;;;11.25;11.25;;;;;18.07;53.14;102543.25;5028883;28;8943;-67
2022/05/06 10:16:41;;;;;;;;;10.33;9.67;;;;;18.16;53.94;102552.97;5036116;28;8838;-67
2022/05/06 10:19:25;;;;;;;;;12.75;12.75;;;;;18.23;53.46;102545.63;5048861;28;8917;-67
2022/05/06 10:21:57;;;;;;;;;12.33;12.33;;;;;18.35;53.06;102540.44;5045037;28;9224;-67
2022/05/06 10:24:23;;;;;;;;;17.00;16.00;;;;;18.34;52.74;102544.22;5040972;28;8922;-66
2022/05/06 10:26:52;;;;;;;;;14.25;12.50;;;;;18.42;52.44;102538.59;5050119;28;9007;-67
2022/05/06 10:32:26;;;;;;;;;12.50;9.50;;;;;18.70;51.58;102539.31;5049959;28;8999;-67
2022/05/06 10:34:58;;;;;;;;;14.50;14.50;;;;;18.78;51.06;102541.84;5049750;28;8805;-67
2022/05/06 10:37:36;;;;;;;;;17.00;14.33;;;;;18.89;51.32;102536.84;5048784;28;8833;-67
2022/05/06 10:40:24;;;;;;;;;13.67;12.00;;;;;18.97;51.37;102536.66;5029888;28;8991;-67
2022/05/06 10:42:52;;;;;;;;;13.33;13.00;;;;;18.96;50.60;102529.50;5042658;28;9007;-67
2022/05/06 10:45:27;;;;;;;;;16.00;13.25;;;;;19.01;49.99;102527.81;5048189;28;8990;-67
2022/05/06 10:47:54;;;;;;;;;17.00;14.75;;;;;19.13;50.02;102527.19;5049625;28;8826;-67
2022/05/06 10:50:23;;;;;;;;;13.33;13.33;;;;;19.20;49.00;102525.28;5049627;28;8806;-66
2022/05/06 10:52:57;;;;;;;;;15.00;13.25;;;;;19.21;49.08;102527.81;5036344;28;8940;-67
2022/05/06 10:55:24;;;;;;;;;16.33;16.00;;;;;19.26;48.72;102519.84;5038587;28;9580;-67
2022/05/06 10:57:53;;;;;;;;;17.67;15.67;;;;;19.26;49.32;102516.28;5049160;28;8922;-67
2022/05/06 11:00:22;;;;;;;;;16.33;14.00;;;;;19.31;49.14;102523.81;5049164;28;8992;-67
2022/05/06 11:02:50;;;;;;;;;16.00;12.25;;;;;19.31;48.78;102524.66;5046105;28;8927;-68
2022/05/06 11:05:20;;;;;;;;;17.00;13.25;;;;;19.38;48.92;102519.19;5034601;28;8963;-67
2022/05/06 11:07:49;;;;;;;;;18.25;17.50;;;;;19.40;49.16;102526.09;5053025;28;9665;-67
2022/05/06 11:10:21;;;;;;;;;18.75;17.25;;;;;19.53;49.20;102519.81;5051966;28;8810;-67
2022/05/06 11:12:50;;;;;;;;;13.25;13.25;;;;;19.65;48.81;102517.31;5048014;28;9554;-67
2022/05/06 11:15:20;;;;;;;;;15.00;14.00;;;;;19.57;48.78;102521.06;5034393;28;8840;-69
2022/05/06 11:17:48;;;;;;;;;13.50;11.00;;;;;19.47;49.11;102517.91;5052796;28;8853;-68
2022/05/06 11:20:22;;;;;;;;;16.50;13.50;;;;;19.57;49.11;102510.13;5053190;28;8821;-68
2022/05/06 11:22:59;;;;;;;;;20.67;18.00;;;;;19.78;46.87;102506.31;5049221;28;8836;-68
2022/05/06 11:25:30;;;;;;;;;25.67;24.33;;;;;19.83;47.51;102508.41;5033373;28;8913;-67
2022/05/06 11:27:58;;;;;;;;;20.33;20.00;;;;;19.59;47.71;102505.28;5037952;28;9095;-67
2022/05/06 11:30:27;;;;;;;;;15.33;15.33;;;;;19.42;48.87;102510.38;5052013;28;9107;-67
2022/05/06 11:33:00;;;;;;;;;16.67;14.00;;;;;19.35;48.17;102503.22;5052596;28;8908;-66
2022/05/06 11:35:40;;;;;;;;;16.00;13.75;;;;;19.46;48.36;102505.31;5053099;28;8970;-68
2022/05/06 11:38:06;;;;;;;;;13.25;13.00;;;;;19.52;46.79;102499.00;5052589;28;8845;-67
2022/05/06 11:40:35;;;;;;;;;16.50;15.25;;;;;19.42;46.89;102504.06;5050342;28;8911;-66
2022/05/06 11:43:19;;;;;;;;;13.50;12.50;;;;;19.29;46.17;102491.28;5052486;28;9006;-67
2022/05/06 11:48:44;;;;;;;;;12.50;11.50;;;;;19.35;46.09;102493.16;5052891;28;8817;-66
2022/05/06 11:51:25;;;;;;;;;18.67;17.00;;;;;19.48;45.93;102498.56;5049733;28;8948;-67
2022/05/06 11:53:53;;;;;;;;;17.00;13.00;;;;;19.67;46.11;102496.88;5052778;28;8997;-68
2022/05/06 11:56:27;;;;;;;;;17.00;16.00;;;;;19.87;44.54;102485.06;5052672;28;8938;-67
2022/05/06 11:58:57;;;;;;;;;19.00;15.00;;;;;20.00;45.28;102482.25;5051079;28;8959;-68
2022/05/06 12:01:25;;;;;;;;;12.50;9.25;;;;;20.15;44.87;102469.16;5048106;28;8989;-67
2022/05/06 12:03:52;;;;;;;;;16.00;14.00;;;;;20.31;44.46;102470.53;5052697;28;8943;-67
2022/05/06 12:06:32;;;;;;;;;12.25;11.25;;;;;20.47;43.90;102469.19;5052283;28;8810;-67
2022/05/06 12:09:10;;;;;;;;;12.25;12.25;;;;;20.55;43.60;102474.44;5052690;28;8829;-66
2022/05/06 12:11:37;;;;;;;;;16.00;14.75;;;;;20.53;43.29;102464.75;5049173;28;8935;-68